sensor_id;sensor_type;location;lat;lon;timestamp;temperature;humidity
16767;DHT22;8501;49.926;8.404;2023-04-01T00:01:29;11.30;99.90
16767;DHT22;8501;49.926;8.404;2023-04-01T00:03:54;11.30;99.90
16767;DHT22;8501;49.926;8.404;2023-04-01T00:06:21;11.30;99.90
16767;DHT22;8501;49.926;8.404;2023-04-01T00:08:47;11.30;99.90
16767;DHT22;8501;49.926;8.404;2023-04-01T00:11:14;11.30;99.90
16767;DHT22;8501;49.926;8.404;2023-04-01T00:13:40;11.30;99.90
16767;DHT22;8501;49.926;8.404;2023-04-01T00:16:07;11.30;99.90
16767;DHT22;8501;49.926;8.404;2023-04-01T00:18:33;11.30;99.90
16767;DHT22;8501;49.926;8.404;2023-04-01T00:20:58;11.20;99.90
16767;DHT22;8501;49.926;8.404;2023-04-01T00:23:24;11.30;99.90
16767;DHT22;8501;49.926;8.404;2023-04-01T00:25:50;11.20;99.90
16767;DHT22;8501;49.926;8.404;2023-04-01T00:28:17;11.20;99.90
16767;DHT22;8501;49.926;8.404;2023-04-01T00:30:43;11.20;99.90
16767;DHT22;8501;49.926;8.404;2023-04-01T00:33:09;11.20;99.90
16767;DHT22;8501;49.926;8.404;2023-04-01T00:35:35;11.20;99.90
16767;DHT22;8501;49.926;8.404;2023-04-01T00:38:00;11.20;99.90
16767;DHT22;8501;49.926;8.404;2023-04-01T00:40:29;11.20;99.90
16767;DHT22;8501;49.926;8.404;2023-04-01T00:42:55;11.20;99.90
16767;DHT22;8501;49.926;8.404;2023-04-01T00:45:32;11.10;99.90
16767;DHT22;8501;49.926;8.404;2023-04-01T00:48:02;11.20;99.90
16767;DHT22;8501;49.926;8.404;2023-04-01T00:50:30;11.10;99.90
16767;DHT22;8501;49.926;8.404;2023-04-01T00:52:59;11.20;99.90
16767;DHT22;8501;49.926;8.404;2023-04-01T00:55:27;11.20;99.90
16767;DHT22;8501;49.926;8.404;2023-04-01T00:57:55;11.20;99.90
16767;DHT22;8501;49.926;8.404;2023-04-01T01:00:22;11.20;99.90
16767;DHT22;8501;49.926;8.404;2023-04-01T01:02:50;11.20;99.90
16767;DHT22;8501;49.926;8.404;2023-04-01T01:05:16;11.20;99.90
16767;DHT22;8501;49.926;8.404;2023-04-01T01:08:13;11.20;99.90
16767;DHT22;8501;49.926;8.404;2023-04-01T01:10:38;11.20;99.90
16767;DHT22;8501;49.926;8.404;2023-04-01T01:24:24;11.10;99.90
16767;DHT22;8501;49.926;8.404;2023-04-01T01:27:01;11.10;99.90
16767;DHT22;8501;49.926;8.404;2023-04-01T01:37:56;11.10;99.90
16767;DHT22;8501;49.926;8.404;2023-04-01T01:40:26;11.10;99.90
16767;DHT22;8501;49.926;8.404;2023-04-01T01:42:55;11.10;99.90
16767;DHT22;8501;49.926;8.404;2023-04-01T01:45:23;11.10;99.90
16767;DHT22;8501;49.926;8.404;2023-04-01T01:47:51;11.10;99.90
16767;DHT22;8501;49.926;8.404;2023-04-01T01:50:18;11.10;99.90
16767;DHT22;8501;49.926;8.404;2023-04-01T01:52:45;11.10;99.90
16767;DHT22;8501;49.926;8.404;2023-04-01T01:55:32;11.10;99.90
16767;DHT22;8501;49.926;8.404;2023-04-01T01:58:02;11.10;99.90
16767;DHT22;8501;49.926;8.404;2023-04-01T02:00:30;11.10;99.90
16767;DHT22;8501;49.926;8.404;2023-04-01T02:02:56;11.10;99.90
16767;DHT22;8501;49.926;8.404;2023-04-01T02:05:25;11.00;99.90
16767;DHT22;8501;49.926;8.404;2023-04-01T02:08:00;11.00;99.90
16767;DHT22;8501;49.926;8.404;2023-04-01T02:10:27;11.00;99.90
16767;DHT22;8501;49.926;8.404;2023-04-01T02:12:58;11.00;99.90
16767;DHT22;8501;49.926;8.404;2023-04-01T02:15:26;11.00;99.90
16767;DHT22;8501;49.926;8.404;2023-04-01T02:17:52;11.00;99.90
16767;DHT22;8501;49.926;8.404;2023-04-01T02:20:23;11.00;99.90
16767;DHT22;8501;49.926;8.404;2023-04-01T02:22:56;11.00;99.90
16767;DHT22;8501;49.926;8.404;2023-04-01T02:25:30;11.00;99.90
16767;DHT22;8501;49.926;8.404;2023-04-01T02:27:59;11.00;99.90
16767;DHT22;8501;49.926;8.404;2023-04-01T02:30:27;10.90;99.90
16767;DHT22;8501;49.926;8.404;2023-04-01T02:32:55;10.90;99.90
16767;DHT22;8501;49.926;8.404;2023-04-01T02:35:22;10.90;99.90
16767;DHT22;8501;49.926;8.404;2023-04-01T02:37:49;10.80;99.90
16767;DHT22;8501;49.926;8.404;2023-04-01T02:40:16;10.80;99.90
16767;DHT22;8501;49.926;8.404;2023-04-01T02:42:42;10.80;99.90
16767;DHT22;8501;49.926;8.404;2023-04-01T02:45:09;10.90;99.90
16767;DHT22;8501;49.926;8.404;2023-04-01T02:47:35;10.80;99.90
16767;DHT22;8501;49.926;8.404;2023-04-01T02:50:00;10.80;99.90
16767;DHT22;8501;49.926;8.404;2023-04-01T02:52:27;10.80;99.90
16767;DHT22;8501;49.926;8.404;2023-04-01T02:54:54;10.80;99.90
16767;DHT22;8501;49.926;8.404;2023-04-01T02:57:20;10.80;99.90
16767;DHT22;8501;49.926;8.404;2023-04-01T02:59:46;10.80;99.90
16767;DHT22;8501;49.926;8.404;2023-04-01T03:02:12;10.80;99.90
16767;DHT22;8501;49.926;8.404;2023-04-01T03:04:37;10.80;99.90
16767;DHT22;8501;49.926;8.404;2023-04-01T03:07:03;10.80;99.90
16767;DHT22;8501;49.926;8.404;2023-04-01T03:09:28;10.70;99.90
16767;DHT22;8501;49.926;8.404;2023-04-01T03:11:54;10.80;99.90
16767;DHT22;8501;49.926;8.404;2023-04-01T03:14:20;10.70;99.90
16767;DHT22;8501;49.926;8.404;2023-04-01T03:16:45;10.80;99.90
16767;DHT22;8501;49.926;8.404;2023-04-01T03:19:11;10.80;99.90
16767;DHT22;8501;49.926;8.404;2023-04-01T03:21:37;10.80;99.90
16767;DHT22;8501;49.926;8.404;2023-04-01T03:24:02;10.80;99.90
16767;DHT22;8501;49.926;8.404;2023-04-01T03:26:28;10.80;99.90
16767;DHT22;8501;49.926;8.404;2023-04-01T03:28:54;10.80;99.90
16767;DHT22;8501;49.926;8.404;2023-04-01T03:31:20;10.80;99.90
16767;DHT22;8501;49.926;8.404;2023-04-01T03:33:46;10.80;99.90
16767;DHT22;8501;49.926;8.404;2023-04-01T03:36:11;10.80;99.90
16767;DHT22;8501;49.926;8.404;2023-04-01T03:38:41;10.80;99.90
16767;DHT22;8501;49.926;8.404;2023-04-01T03:41:11;10.80;99.90
16767;DHT22;8501;49.926;8.404;2023-04-01T03:43:37;10.80;99.90
16767;DHT22;8501;49.926;8.404;2023-04-01T03:46:02;10.70;99.90
16767;DHT22;8501;49.926;8.404;2023-04-01T03:48:27;10.70;99.90
16767;DHT22;8501;49.926;8.404;2023-04-01T03:50:53;10.70;99.90
16767;DHT22;8501;49.926;8.404;2023-04-01T03:53:19;10.80;99.90
16767;DHT22;8501;49.926;8.404;2023-04-01T03:55:45;10.80;99.90
16767;DHT22;8501;49.926;8.404;2023-04-01T03:58:11;10.80;99.90
16767;DHT22;8501;49.926;8.404;2023-04-01T04:00:36;10.70;99.90
16767;DHT22;8501;49.926;8.404;2023-04-01T04:03:02;10.70;99.90
16767;DHT22;8501;49.926;8.404;2023-04-01T04:05:28;10.70;99.90
16767;DHT22;8501;49.926;8.404;2023-04-01T04:07:54;10.70;99.90
16767;DHT22;8501;49.926;8.404;2023-04-01T04:10:19;10.70;99.90
16767;DHT22;8501;49.926;8.404;2023-04-01T04:12:45;10.80;99.90
16767;DHT22;8501;49.926;8.404;2023-04-01T04:15:11;10.80;99.90
16767;DHT22;8501;49.926;8.404;2023-04-01T04:17:37;10.70;99.90
16767;DHT22;8501;49.926;8.404;2023-04-01T04:20:03;10.70;99.90
16767;DHT22;8501;49.926;8.404;2023-04-01T04:22:28;10.70;99.90
16767;DHT22;8501;49.926;8.404;2023-04-01T04:24:54;10.70;99.90
16767;DHT22;8501;49.926;8.404;2023-04-01T04:27:20;10.70;99.90
16767;DHT22;8501;49.926;8.404;2023-04-01T04:29:45;10.80;99.90
16767;DHT22;8501;49.926;8.404;2023-04-01T04:32:11;10.80;99.90
16767;DHT22;8501;49.926;8.404;2023-04-01T04:34:36;10.70;99.90
16767;DHT22;8501;49.926;8.404;2023-04-01T04:37:02;10.80;99.90
16767;DHT22;8501;49.926;8.404;2023-04-01T04:39:28;10.80;99.90
16767;DHT22;8501;49.926;8.404;2023-04-01T04:41:54;10.80;99.90
16767;DHT22;8501;49.926;8.404;2023-04-01T04:44:19;10.80;99.90
16767;DHT22;8501;49.926;8.404;2023-04-01T04:46:45;10.80;99.90
16767;DHT22;8501;49.926;8.404;2023-04-01T04:49:10;10.80;99.90
16767;DHT22;8501;49.926;8.404;2023-04-01T04:51:36;10.80;99.90
16767;DHT22;8501;49.926;8.404;2023-04-01T04:54:05;10.80;99.90
16767;DHT22;8501;49.926;8.404;2023-04-01T04:56:31;10.80;99.90
16767;DHT22;8501;49.926;8.404;2023-04-01T04:58:57;10.80;99.90
16767;DHT22;8501;49.926;8.404;2023-04-01T05:01:23;10.80;99.90
16767;DHT22;8501;49.926;8.404;2023-04-01T05:03:48;10.80;99.90
16767;DHT22;8501;49.926;8.404;2023-04-01T05:06:15;10.70;99.90
16767;DHT22;8501;49.926;8.404;2023-04-01T05:08:42;10.80;99.90
16767;DHT22;8501;49.926;8.404;2023-04-01T05:11:12;10.70;99.90
16767;DHT22;8501;49.926;8.404;2023-04-01T05:13:37;10.70;99.90
16767;DHT22;8501;49.926;8.404;2023-04-01T05:16:03;10.70;99.90
16767;DHT22;8501;49.926;8.404;2023-04-01T05:18:29;10.70;99.90
16767;DHT22;8501;49.926;8.404;2023-04-01T05:20:55;10.70;99.90
16767;DHT22;8501;49.926;8.404;2023-04-01T05:23:22;10.70;99.90
16767;DHT22;8501;49.926;8.404;2023-04-01T05:25:51;10.70;99.90
16767;DHT22;8501;49.926;8.404;2023-04-01T05:28:19;10.70;99.90
16767;DHT22;8501;49.926;8.404;2023-04-01T05:30:45;10.70;99.90
16767;DHT22;8501;49.926;8.404;2023-04-01T05:33:12;10.70;99.90
16767;DHT22;8501;49.926;8.404;2023-04-01T05:35:38;10.70;99.90
16767;DHT22;8501;49.926;8.404;2023-04-01T05:38:04;10.70;99.90
16767;DHT22;8501;49.926;8.404;2023-04-01T05:40:30;10.70;99.90
16767;DHT22;8501;49.926;8.404;2023-04-01T05:42:56;10.60;99.90
16767;DHT22;8501;49.926;8.404;2023-04-01T05:45:22;10.60;99.90
16767;DHT22;8501;49.926;8.404;2023-04-01T05:47:47;10.60;99.90
16767;DHT22;8501;49.926;8.404;2023-04-01T05:50:13;10.60;99.90
16767;DHT22;8501;49.926;8.404;2023-04-01T05:52:38;10.70;99.90
16767;DHT22;8501;49.926;8.404;2023-04-01T05:55:05;10.70;99.90
16767;DHT22;8501;49.926;8.404;2023-04-01T05:57:30;10.70;99.90
16767;DHT22;8501;49.926;8.404;2023-04-01T05:59:56;10.70;99.90
16767;DHT22;8501;49.926;8.404;2023-04-01T06:02:21;10.70;99.90
16767;DHT22;8501;49.926;8.404;2023-04-01T06:04:47;10.70;99.90
16767;DHT22;8501;49.926;8.404;2023-04-01T06:07:17;10.70;99.90
16767;DHT22;8501;49.926;8.404;2023-04-01T06:09:44;10.70;99.90
16767;DHT22;8501;49.926;8.404;2023-04-01T06:15:18;10.70;99.90
16767;DHT22;8501;49.926;8.404;2023-04-01T06:17:54;10.70;99.90
16767;DHT22;8501;49.926;8.404;2023-04-01T06:23:13;10.80;99.90
16767;DHT22;8501;49.926;8.404;2023-04-01T06:25:47;10.80;99.90
16767;DHT22;8501;49.926;8.404;2023-04-01T06:31:45;10.80;99.90
16767;DHT22;8501;49.926;8.404;2023-04-01T06:34:43;10.70;99.90
16767;DHT22;8501;49.926;8.404;2023-04-01T06:37:40;10.70;99.90
16767;DHT22;8501;49.926;8.404;2023-04-01T06:40:34;10.70;99.90
16767;DHT22;8501;49.926;8.404;2023-04-01T06:43:19;10.70;99.90
16767;DHT22;8501;49.926;8.404;2023-04-01T06:48:45;10.80;99.90
16767;DHT22;8501;49.926;8.404;2023-04-01T06:54:18;10.80;99.90
16767;DHT22;8501;49.926;8.404;2023-04-01T06:56:48;10.80;99.90
16767;DHT22;8501;49.926;8.404;2023-04-01T06:59:22;10.80;99.90
16767;DHT22;8501;49.926;8.404;2023-04-01T07:01:55;10.80;99.90
16767;DHT22;8501;49.926;8.404;2023-04-01T07:04:33;10.80;99.90
16767;DHT22;8501;49.926;8.404;2023-04-01T07:07:08;10.80;99.90
16767;DHT22;8501;49.926;8.404;2023-04-01T07:09:39;10.80;99.90
16767;DHT22;8501;49.926;8.404;2023-04-01T07:12:37;10.90;99.90
16767;DHT22;8501;49.926;8.404;2023-04-01T07:15:11;10.90;99.90
16767;DHT22;8501;49.926;8.404;2023-04-01T07:17:39;10.90;99.90
16767;DHT22;8501;49.926;8.404;2023-04-01T07:22:47;11.00;99.90
16767;DHT22;8501;49.926;8.404;2023-04-01T07:25:17;11.00;99.90
16767;DHT22;8501;49.926;8.404;2023-04-01T07:27:43;11.10;99.90
16767;DHT22;8501;49.926;8.404;2023-04-01T07:30:18;11.10;99.90
16767;DHT22;8501;49.926;8.404;2023-04-01T07:36:20;11.20;99.90
16767;DHT22;8501;49.926;8.404;2023-04-01T07:38:34;11.20;99.90
16767;DHT22;8501;49.926;8.404;2023-04-01T07:44:12;11.20;99.90
16767;DHT22;8501;49.926;8.404;2023-04-01T07:49:32;11.30;99.90
16767;DHT22;8501;49.926;8.404;2023-04-01T07:52:35;11.30;99.90
16767;DHT22;8501;49.926;8.404;2023-04-01T07:55:34;11.40;99.90
16767;DHT22;8501;49.926;8.404;2023-04-01T08:01:18;11.40;99.90
16767;DHT22;8501;49.926;8.404;2023-04-01T08:04:13;11.50;99.90
16767;DHT22;8501;49.926;8.404;2023-04-01T08:07:03;11.50;99.90
16767;DHT22;8501;49.926;8.404;2023-04-01T08:14:45;11.50;99.90
16767;DHT22;8501;49.926;8.404;2023-04-01T08:22:33;11.50;99.90
16767;DHT22;8501;49.926;8.404;2023-04-01T08:25:05;11.50;99.90
16767;DHT22;8501;49.926;8.404;2023-04-01T08:27:43;11.50;99.90
16767;DHT22;8501;49.926;8.404;2023-04-01T08:30:25;11.40;99.90
16767;DHT22;8501;49.926;8.404;2023-04-01T08:32:56;11.40;99.90
16767;DHT22;8501;49.926;8.404;2023-04-01T08:35:37;11.40;99.90
16767;DHT22;8501;49.926;8.404;2023-04-01T08:38:12;11.40;99.90
16767;DHT22;8501;49.926;8.404;2023-04-01T08:41:07;11.40;99.90
16767;DHT22;8501;49.926;8.404;2023-04-01T08:44:18;11.40;99.90
16767;DHT22;8501;49.926;8.404;2023-04-01T08:47:13;11.40;99.90
16767;DHT22;8501;49.926;8.404;2023-04-01T08:55:43;11.40;99.90
16767;DHT22;8501;49.926;8.404;2023-04-01T09:21:57;11.50;99.90
16767;DHT22;8501;49.926;8.404;2023-04-01T09:27:19;11.50;99.90
16767;DHT22;8501;49.926;8.404;2023-04-01T09:41:28;11.50;99.90
16767;DHT22;8501;49.926;8.404;2023-04-01T09:44:01;11.50;99.90
16767;DHT22;8501;49.926;8.404;2023-04-01T09:46:44;11.50;99.90
16767;DHT22;8501;49.926;8.404;2023-04-01T09:49:37;11.50;99.90
16767;DHT22;8501;49.926;8.404;2023-04-01T09:55:12;11.60;99.90
16767;DHT22;8501;49.926;8.404;2023-04-01T10:14:26;11.70;99.90
16767;DHT22;8501;49.926;8.404;2023-04-01T10:26:10;11.70;99.90
16767;DHT22;8501;49.926;8.404;2023-04-01T10:31:44;11.80;99.90
16767;DHT22;8501;49.926;8.404;2023-04-01T10:46:10;11.80;99.90
16767;DHT22;8501;49.926;8.404;2023-04-01T10:52:02;11.90;99.90
16767;DHT22;8501;49.926;8.404;2023-04-01T10:54:49;11.90;99.90
16767;DHT22;8501;49.926;8.404;2023-04-01T11:05:42;12.00;99.90
16767;DHT22;8501;49.926;8.404;2023-04-01T11:27:11;11.90;99.90
16767;DHT22;8501;49.926;8.404;2023-04-01T11:30:00;12.00;99.90
16767;DHT22;8501;49.926;8.404;2023-04-01T11:32:53;12.00;99.90
16767;DHT22;8501;49.926;8.404;2023-04-01T11:41:08;12.00;99.90
16767;DHT22;8501;49.926;8.404;2023-04-01T11:43:45;12.00;99.90
16767;DHT22;8501;49.926;8.404;2023-04-01T11:46:42;12.00;99.90
16767;DHT22;8501;49.926;8.404;2023-04-01T11:49:40;12.00;99.90
16767;DHT22;8501;49.926;8.404;2023-04-01T11:57:46;12.00;99.90
16767;DHT22;8501;49.926;8.404;2023-04-01T12:03:43;12.10;99.90
16767;DHT22;8501;49.926;8.404;2023-04-01T12:06:49;12.00;99.90
16767;DHT22;8501;49.926;8.404;2023-04-01T12:09:22;12.00;99.90
16767;DHT22;8501;49.926;8.404;2023-04-01T12:14:48;12.10;99.90
16767;DHT22;8501;49.926;8.404;2023-04-01T12:17:43;12.00;99.90
16767;DHT22;8501;49.926;8.404;2023-04-01T12:20:42;12.10;99.90
16767;DHT22;8501;49.926;8.404;2023-04-01T12:32:19;12.20;99.90
16767;DHT22;8501;49.926;8.404;2023-04-01T12:38:07;12.20;99.90
16767;DHT22;8501;49.926;8.404;2023-04-01T12:41:03;12.30;99.90
16767;DHT22;8501;49.926;8.404;2023-04-01T12:49:21;12.20;99.90
16767;DHT22;8501;49.926;8.404;2023-04-01T12:54:48;12.10;99.90
16767;DHT22;8501;49.926;8.404;2023-04-01T13:03:11;12.00;99.90
16767;DHT22;8501;49.926;8.404;2023-04-01T13:06:20;12.00;99.90
16767;DHT22;8501;49.926;8.404;2023-04-01T13:19:36;12.10;99.90
16767;DHT22;8501;49.926;8.404;2023-04-01T13:25:44;12.20;99.90
16767;DHT22;8501;49.926;8.404;2023-04-01T13:27:54;12.30;99.90
16767;DHT22;8501;49.926;8.404;2023-04-01T13:30:39;12.40;99.90
16767;DHT22;8501;49.926;8.404;2023-04-01T13:36:19;12.50;99.90
16767;DHT22;8501;49.926;8.404;2023-04-01T13:38:58;12.50;99.90
16767;DHT22;8501;49.926;8.404;2023-04-01T13:55:23;12.70;99.90
16767;DHT22;8501;49.926;8.404;2023-04-01T13:58:14;12.70;99.90
16767;DHT22;8501;49.926;8.404;2023-04-01T14:03:50;12.70;99.90
16767;DHT22;8501;49.926;8.404;2023-04-01T14:09:25;12.70;99.90
16767;DHT22;8501;49.926;8.404;2023-04-01T14:12:04;12.80;99.90
16767;DHT22;8501;49.926;8.404;2023-04-01T14:29:06;12.80;99.90
16767;DHT22;8501;49.926;8.404;2023-04-01T14:34:59;13.10;99.90
16767;DHT22;8501;49.926;8.404;2023-04-01T14:40:26;13.10;99.90
16767;DHT22;8501;49.926;8.404;2023-04-01T14:48:51;13.10;99.90
16767;DHT22;8501;49.926;8.404;2023-04-01T14:51:36;13.00;99.90
16767;DHT22;8501;49.926;8.404;2023-04-01T14:54:30;12.90;99.90
16767;DHT22;8501;49.926;8.404;2023-04-01T14:57:14;12.90;99.90
16767;DHT22;8501;49.926;8.404;2023-04-01T14:59:48;12.80;99.90
16767;DHT22;8501;49.926;8.404;2023-04-01T15:05:23;12.80;99.90
16767;DHT22;8501;49.926;8.404;2023-04-01T15:08:33;12.80;99.90
16767;DHT22;8501;49.926;8.404;2023-04-01T15:11:30;12.80;99.90
16767;DHT22;8501;49.926;8.404;2023-04-01T15:22:34;12.90;99.90
16767;DHT22;8501;49.926;8.404;2023-04-01T15:31:15;13.10;99.90
16767;DHT22;8501;49.926;8.404;2023-04-01T15:44:43;12.90;99.90
16767;DHT22;8501;49.926;8.404;2023-04-01T16:01:09;12.80;99.90
16767;DHT22;8501;49.926;8.404;2023-04-01T16:04:05;12.70;99.90
16767;DHT22;8501;49.926;8.404;2023-04-01T16:06:45;12.70;99.90
16767;DHT22;8501;49.926;8.404;2023-04-01T16:12:09;12.60;99.90
16767;DHT22;8501;49.926;8.404;2023-04-01T16:20:55;12.70;99.90
16767;DHT22;8501;49.926;8.404;2023-04-01T16:23:42;12.60;99.90
16767;DHT22;8501;49.926;8.404;2023-04-01T16:26:29;12.60;99.90
16767;DHT22;8501;49.926;8.404;2023-04-01T16:34:40;12.50;99.90
16767;DHT22;8501;49.926;8.404;2023-04-01T16:39:45;12.40;99.90
16767;DHT22;8501;49.926;8.404;2023-04-01T16:45:42;12.40;99.90
16767;DHT22;8501;49.926;8.404;2023-04-01T16:48:45;12.40;99.90
16767;DHT22;8501;49.926;8.404;2023-04-01T16:51:16;12.40;99.90
16767;DHT22;8501;49.926;8.404;2023-04-01T16:56:41;12.30;99.90
16767;DHT22;8501;49.926;8.404;2023-04-01T17:07:29;12.30;99.90
16767;DHT22;8501;49.926;8.404;2023-04-01T17:18:50;12.10;99.90
16767;DHT22;8501;49.926;8.404;2023-04-01T17:35:03;12.10;99.90
16767;DHT22;8501;49.926;8.404;2023-04-01T17:37:57;12.00;99.90
16767;DHT22;8501;49.926;8.404;2023-04-01T17:45:49;12.00;99.90
16767;DHT22;8501;49.926;8.404;2023-04-01T17:53:50;12.00;99.90
16767;DHT22;8501;49.926;8.404;2023-04-01T18:00:13;12.00;99.90
16767;DHT22;8501;49.926;8.404;2023-04-01T18:05:41;12.00;99.90
16767;DHT22;8501;49.926;8.404;2023-04-01T18:17:03;11.90;99.90
16767;DHT22;8501;49.926;8.404;2023-04-01T18:24:56;11.80;99.90
16767;DHT22;8501;49.926;8.404;2023-04-01T18:27:24;11.80;99.90
16767;DHT22;8501;49.926;8.404;2023-04-01T18:30:17;11.80;99.90
16767;DHT22;8501;49.926;8.404;2023-04-01T18:38:20;11.70;99.90
16767;DHT22;8501;49.926;8.404;2023-04-01T18:41:12;11.70;99.90
16767;DHT22;8501;49.926;8.404;2023-04-01T18:44:03;11.80;99.90
16767;DHT22;8501;49.926;8.404;2023-04-01T18:46:49;11.70;99.90
16767;DHT22;8501;49.926;8.404;2023-04-01T18:49:21;11.60;99.90
16767;DHT22;8501;49.926;8.404;2023-04-01T18:51:55;11.60;99.90
16767;DHT22;8501;49.926;8.404;2023-04-01T18:55:15;11.60;99.90
16767;DHT22;8501;49.926;8.404;2023-04-01T18:57:52;11.60;99.90
16767;DHT22;8501;49.926;8.404;2023-04-01T19:03:01;11.60;99.90
16767;DHT22;8501;49.926;8.404;2023-04-01T19:05:39;11.60;99.90
16767;DHT22;8501;49.926;8.404;2023-04-01T19:08:18;11.60;99.90
16767;DHT22;8501;49.926;8.404;2023-04-01T19:10:57;11.60;99.90
16767;DHT22;8501;49.926;8.404;2023-04-01T19:13:54;11.50;99.90
16767;DHT22;8501;49.926;8.404;2023-04-01T19:25:34;11.40;99.90
16767;DHT22;8501;49.926;8.404;2023-04-01T19:30:56;11.40;99.90
16767;DHT22;8501;49.926;8.404;2023-04-01T19:33:48;11.40;99.90
16767;DHT22;8501;49.926;8.404;2023-04-01T19:36:41;11.40;99.90
16767;DHT22;8501;49.926;8.404;2023-04-01T19:42:59;11.40;99.90
16767;DHT22;8501;49.926;8.404;2023-04-01T19:45:19;11.30;99.90
16767;DHT22;8501;49.926;8.404;2023-04-01T19:47:56;11.30;99.90
16767;DHT22;8501;49.926;8.404;2023-04-01T19:52:54;11.40;99.90
16767;DHT22;8501;49.926;8.404;2023-04-01T19:55:47;11.30;99.90
16767;DHT22;8501;49.926;8.404;2023-04-01T20:00:48;11.30;99.90
16767;DHT22;8501;49.926;8.404;2023-04-01T20:03:44;11.30;99.90
16767;DHT22;8501;49.926;8.404;2023-04-01T20:06:28;11.30;99.90
16767;DHT22;8501;49.926;8.404;2023-04-01T20:12:34;11.20;99.90
16767;DHT22;8501;49.926;8.404;2023-04-01T20:15:21;11.20;99.90
16767;DHT22;8501;49.926;8.404;2023-04-01T20:17:48;11.20;99.90
16767;DHT22;8501;49.926;8.404;2023-04-01T20:20:23;11.20;99.90
16767;DHT22;8501;49.926;8.404;2023-04-01T20:23:16;11.20;99.90
16767;DHT22;8501;49.926;8.404;2023-04-01T20:25:52;11.10;99.90
16767;DHT22;8501;49.926;8.404;2023-04-01T20:28:24;11.10;99.90
16767;DHT22;8501;49.926;8.404;2023-04-01T20:30:59;11.10;99.90
16767;DHT22;8501;49.926;8.404;2023-04-01T20:42:16;11.20;99.90
16767;DHT22;8501;49.926;8.404;2023-04-01T20:53:43;11.10;99.90
16767;DHT22;8501;49.926;8.404;2023-04-01T21:02:04;11.10;99.90
16767;DHT22;8501;49.926;8.404;2023-04-01T21:07:25;11.10;99.90
16767;DHT22;8501;49.926;8.404;2023-04-01T21:10:16;11.10;99.90
16767;DHT22;8501;49.926;8.404;2023-04-01T21:19:07;11.10;99.90
16767;DHT22;8501;49.926;8.404;2023-04-01T21:32:51;11.00;99.90
16767;DHT22;8501;49.926;8.404;2023-04-01T21:41:30;10.90;99.90
16767;DHT22;8501;49.926;8.404;2023-04-01T22:10:24;10.90;99.90
16767;DHT22;8501;49.926;8.404;2023-04-01T22:13:20;10.90;99.90
16767;DHT22;8501;49.926;8.404;2023-04-01T22:19:00;10.80;99.90
16767;DHT22;8501;49.926;8.404;2023-04-01T22:21:38;10.80;99.90
16767;DHT22;8501;49.926;8.404;2023-04-01T22:24:24;10.80;99.90
16767;DHT22;8501;49.926;8.404;2023-04-01T22:30:25;10.80;99.90
16767;DHT22;8501;49.926;8.404;2023-04-01T22:33:03;10.80;99.90
16767;DHT22;8501;49.926;8.404;2023-04-01T22:35:49;10.80;99.90
16767;DHT22;8501;49.926;8.404;2023-04-01T22:41:46;10.80;99.90
16767;DHT22;8501;49.926;8.404;2023-04-01T22:47:18;10.80;99.90
16767;DHT22;8501;49.926;8.404;2023-04-01T22:50:10;10.80;99.90
16767;DHT22;8501;49.926;8.404;2023-04-01T22:52:42;10.80;99.90
16767;DHT22;8501;49.926;8.404;2023-04-01T22:55:22;10.80;99.90
16767;DHT22;8501;49.926;8.404;2023-04-01T23:00:30;10.80;99.90
16767;DHT22;8501;49.926;8.404;2023-04-01T23:03:17;10.80;99.90
16767;DHT22;8501;49.926;8.404;2023-04-01T23:05:53;11.00;99.90
16767;DHT22;8501;49.926;8.404;2023-04-01T23:08:30;10.80;99.90
16767;DHT22;8501;49.926;8.404;2023-04-01T23:11:02;10.80;99.90
16767;DHT22;8501;49.926;8.404;2023-04-01T23:13:50;10.80;99.90
16767;DHT22;8501;49.926;8.404;2023-04-01T23:16:25;10.80;99.90
16767;DHT22;8501;49.926;8.404;2023-04-01T23:19:06;10.80;99.90
16767;DHT22;8501;49.926;8.404;2023-04-01T23:21:48;10.80;99.90
16767;DHT22;8501;49.926;8.404;2023-04-01T23:24:30;10.80;99.90
16767;DHT22;8501;49.926;8.404;2023-04-01T23:27:08;10.80;99.90
16767;DHT22;8501;49.926;8.404;2023-04-01T23:29:38;10.80;99.90
16767;DHT22;8501;49.926;8.404;2023-04-01T23:32:19;10.80;99.90
16767;DHT22;8501;49.926;8.404;2023-04-01T23:34:52;10.80;99.90
16767;DHT22;8501;49.926;8.404;2023-04-01T23:37:18;10.80;99.90
16767;DHT22;8501;49.926;8.404;2023-04-01T23:39:47;10.70;99.90
16767;DHT22;8501;49.926;8.404;2023-04-01T23:44:56;10.70;99.90
16767;DHT22;8501;49.926;8.404;2023-04-01T23:47:26;10.70;99.90
16767;DHT22;8501;49.926;8.404;2023-04-01T23:49:59;10.70;99.90
16767;DHT22;8501;49.926;8.404;2023-04-01T23:52:29;10.70;99.90
16767;DHT22;8501;49.926;8.404;2023-04-01T23:54:58;10.70;99.90
16767;DHT22;8501;49.926;8.404;2023-04-01T23:57:36;10.70;99.90
